sensor_id;sensor_type;location;lat;lon;timestamp;P1;durP1;ratioP1;P2;durP2;ratioP2
25569;SDS011;17955;45.542;9.238;2022-11-14T00:01:59;0.50;;;0.50;;
25569;SDS011;17955;45.542;9.238;2022-11-14T00:04:45;0.45;;;0.45;;
25569;SDS011;17955;45.542;9.238;2022-11-14T00:07:31;0.73;;;0.73;;
25569;SDS011;17955;45.542;9.238;2022-11-14T00:10:18;1.42;;;1.17;;
25569;SDS011;17955;45.542;9.238;2022-11-14T00:13:06;0.43;;;0.43;;
25569;SDS011;17955;45.542;9.238;2022-11-14T00:15:52;0.75;;;0.75;;
25569;SDS011;17955;45.542;9.238;2022-11-14T00:18:38;0.88;;;0.88;;
25569;SDS011;17955;45.542;9.238;2022-11-14T00:21:26;2.10;;;1.48;;
25569;SDS011;17955;45.542;9.238;2022-11-14T00:24:12;0.98;;;0.98;;
25569;SDS011;17955;45.542;9.238;2022-11-14T00:27:00;0.73;;;0.73;;
25569;SDS011;17955;45.542;9.238;2022-11-14T00:29:51;0.60;;;0.60;;
25569;SDS011;17955;45.542;9.238;2022-11-14T00:32:40;1.05;;;0.95;;
25569;SDS011;17955;45.542;9.238;2022-11-14T00:35:29;0.60;;;0.60;;
25569;SDS011;17955;45.542;9.238;2022-11-14T00:38:16;1.38;;;1.25;;
25569;SDS011;17955;45.542;9.238;2022-11-14T00:41:04;0.55;;;0.55;;
25569;SDS011;17955;45.542;9.238;2022-11-14T00:43:50;1.45;;;1.15;;
25569;SDS011;17955;45.542;9.238;2022-11-14T00:46:39;3.30;;;1.25;;
25569;SDS011;17955;45.542;9.238;2022-11-14T00:49:26;0.50;;;0.50;;
25569;SDS011;17955;45.542;9.238;2022-11-14T00:52:15;1.10;;;1.10;;
25569;SDS011;17955;45.542;9.238;2022-11-14T00:55:03;1.08;;;0.98;;
25569;SDS011;17955;45.542;9.238;2022-11-14T00:57:51;1.08;;;0.98;;
25569;SDS011;17955;45.542;9.238;2022-11-14T01:00:39;0.40;;;0.40;;
25569;SDS011;17955;45.542;9.238;2022-11-14T01:06:18;0.50;;;0.50;;
25569;SDS011;17955;45.542;9.238;2022-11-14T02:19:45;0.93;;;0.93;;
25569;SDS011;17955;45.542;9.238;2022-11-14T02:29:23;0.38;;;0.38;;
25569;SDS011;17955;45.542;9.238;2022-11-14T02:32:28;1.90;;;1.15;;
25569;SDS011;17955;45.542;9.238;2022-11-14T02:35:28;0.40;;;0.40;;
25569;SDS011;17955;45.542;9.238;2022-11-14T02:38:14;2.03;;;0.70;;
25569;SDS011;17955;45.542;9.238;2022-11-14T02:41:00;0.68;;;0.68;;
25569;SDS011;17955;45.542;9.238;2022-11-14T02:43:46;0.55;;;0.55;;
25569;SDS011;17955;45.542;9.238;2022-11-14T02:46:34;3.00;;;1.35;;
25569;SDS011;17955;45.542;9.238;2022-11-14T02:49:20;0.70;;;0.70;;
25569;SDS011;17955;45.542;9.238;2022-11-14T02:54:53;2.40;;;2.10;;
25569;SDS011;17955;45.542;9.238;2022-11-14T02:57:40;0.85;;;0.75;;
25569;SDS011;17955;45.542;9.238;2022-11-14T03:00:30;1.23;;;1.13;;
25569;SDS011;17955;45.542;9.238;2022-11-14T03:03:17;0.73;;;0.73;;
25569;SDS011;17955;45.542;9.238;2022-11-14T03:06:04;0.40;;;0.40;;
25569;SDS011;17955;45.542;9.238;2022-11-14T03:08:50;0.50;;;0.50;;
25569;SDS011;17955;45.542;9.238;2022-11-14T03:11:37;4.75;;;2.20;;
25569;SDS011;17955;45.542;9.238;2022-11-14T03:14:24;1.45;;;1.35;;
25569;SDS011;17955;45.542;9.238;2022-11-14T03:17:10;0.57;;;0.57;;
25569;SDS011;17955;45.542;9.238;2022-11-14T03:19:58;0.52;;;0.50;;
25569;SDS011;17955;45.542;9.238;2022-11-14T03:22:45;1.00;;;0.68;;
25569;SDS011;17955;45.542;9.238;2022-11-14T03:25:33;1.48;;;1.10;;
25569;SDS011;17955;45.542;9.238;2022-11-14T03:28:21;1.35;;;1.27;;
25569;SDS011;17955;45.542;9.238;2022-11-14T03:31:08;0.40;;;0.40;;
25569;SDS011;17955;45.542;9.238;2022-11-14T03:33:55;0.43;;;0.43;;
25569;SDS011;17955;45.542;9.238;2022-11-14T03:36:43;0.50;;;0.50;;
25569;SDS011;17955;45.542;9.238;2022-11-14T03:39:30;0.40;;;0.40;;
25569;SDS011;17955;45.542;9.238;2022-11-14T03:42:16;1.13;;;0.95;;
25569;SDS011;17955;45.542;9.238;2022-11-14T03:45:03;1.30;;;1.23;;
25569;SDS011;17955;45.542;9.238;2022-11-14T03:47:49;0.40;;;0.40;;
25569;SDS011;17955;45.542;9.238;2022-11-14T03:50:36;1.30;;;1.15;;
25569;SDS011;17955;45.542;9.238;2022-11-14T03:53:25;1.25;;;1.23;;
25569;SDS011;17955;45.542;9.238;2022-11-14T03:56:12;0.70;;;0.70;;
25569;SDS011;17955;45.542;9.238;2022-11-14T03:59:01;0.77;;;0.77;;
25569;SDS011;17955;45.542;9.238;2022-11-14T04:01:47;1.45;;;1.35;;
25569;SDS011;17955;45.542;9.238;2022-11-14T04:04:35;2.03;;;1.92;;
25569;SDS011;17955;45.542;9.238;2022-11-14T04:07:22;0.70;;;0.70;;
25569;SDS011;17955;45.542;9.238;2022-11-14T04:19:47;0.70;;;0.70;;
25569;SDS011;17955;45.542;9.238;2022-11-14T04:22:34;1.30;;;1.08;;
25569;SDS011;17955;45.542;9.238;2022-11-14T04:25:19;1.45;;;1.38;;
25569;SDS011;17955;45.542;9.238;2022-11-14T04:28:05;1.15;;;1.13;;
25569;SDS011;17955;45.542;9.238;2022-11-14T04:30:51;0.82;;;0.82;;
25569;SDS011;17955;45.542;9.238;2022-11-14T04:33:36;0.40;;;0.40;;
25569;SDS011;17955;45.542;9.238;2022-11-14T04:36:23;2.35;;;1.30;;
25569;SDS011;17955;45.542;9.238;2022-11-14T04:39:09;0.47;;;0.47;;
25569;SDS011;17955;45.542;9.238;2022-11-14T04:41:55;5.05;;;1.98;;
25569;SDS011;17955;45.542;9.238;2022-11-14T04:44:40;0.40;;;0.40;;
25569;SDS011;17955;45.542;9.238;2022-11-14T04:47:26;1.50;;;1.40;;
25569;SDS011;17955;45.542;9.238;2022-11-14T04:50:12;0.60;;;0.60;;
25569;SDS011;17955;45.542;9.238;2022-11-14T04:53:05;0.50;;;0.50;;
25569;SDS011;17955;45.542;9.238;2022-11-14T04:55:54;2.75;;;2.15;;
25569;SDS011;17955;45.542;9.238;2022-11-14T04:58:41;0.77;;;0.77;;
25569;SDS011;17955;45.542;9.238;2022-11-14T05:04:13;0.95;;;0.95;;
25569;SDS011;17955;45.542;9.238;2022-11-14T05:07:00;2.85;;;2.60;;
25569;SDS011;17955;45.542;9.238;2022-11-14T05:09:50;2.17;;;1.63;;
25569;SDS011;17955;45.542;9.238;2022-11-14T05:12:36;2.90;;;1.88;;
25569;SDS011;17955;45.542;9.238;2022-11-14T05:18:09;1.83;;;1.10;;
25569;SDS011;17955;45.542;9.238;2022-11-14T05:20:56;1.63;;;1.30;;
25569;SDS011;17955;45.542;9.238;2022-11-14T05:23:43;0.40;;;0.40;;
25569;SDS011;17955;45.542;9.238;2022-11-14T05:26:33;1.73;;;1.63;;
25569;SDS011;17955;45.542;9.238;2022-11-14T05:29:19;1.65;;;0.93;;
25569;SDS011;17955;45.542;9.238;2022-11-14T05:32:05;0.80;;;0.80;;
25569;SDS011;17955;45.542;9.238;2022-11-14T05:34:51;0.85;;;0.85;;
25569;SDS011;17955;45.542;9.238;2022-11-14T05:37:37;1.27;;;0.80;;
25569;SDS011;17955;45.542;9.238;2022-11-14T05:40:23;0.60;;;0.60;;
25569;SDS011;17955;45.542;9.238;2022-11-14T05:43:12;1.15;;;1.15;;
25569;SDS011;17955;45.542;9.238;2022-11-14T05:45:58;1.23;;;1.15;;
25569;SDS011;17955;45.542;9.238;2022-11-14T05:51:31;1.80;;;1.38;;
25569;SDS011;17955;45.542;9.238;2022-11-14T05:54:17;1.92;;;1.77;;
25569;SDS011;17955;45.542;9.238;2022-11-14T05:59:51;0.85;;;0.85;;
25569;SDS011;17955;45.542;9.238;2022-11-14T06:02:37;0.95;;;0.95;;
25569;SDS011;17955;45.542;9.238;2022-11-14T06:05:24;0.70;;;0.70;;
25569;SDS011;17955;45.542;9.238;2022-11-14T06:08:10;1.13;;;1.13;;
25569;SDS011;17955;45.542;9.238;2022-11-14T06:13:43;0.60;;;0.60;;
25569;SDS011;17955;45.542;9.238;2022-11-14T06:16:30;2.20;;;2.08;;
25569;SDS011;17955;45.542;9.238;2022-11-14T06:19:16;0.40;;;0.40;;
25569;SDS011;17955;45.542;9.238;2022-11-14T06:22:04;1.60;;;1.52;;
25569;SDS011;17955;45.542;9.238;2022-11-14T06:24:50;0.90;;;0.90;;
25569;SDS011;17955;45.542;9.238;2022-11-14T06:27:36;0.73;;;0.73;;
25569;SDS011;17955;45.542;9.238;2022-11-14T06:30:22;0.77;;;0.77;;
25569;SDS011;17955;45.542;9.238;2022-11-14T06:33:10;0.82;;;0.82;;
25569;SDS011;17955;45.542;9.238;2022-11-14T06:35:56;1.08;;;1.08;;
25569;SDS011;17955;45.542;9.238;2022-11-14T06:38:43;0.55;;;0.55;;
25569;SDS011;17955;45.542;9.238;2022-11-14T06:41:29;0.75;;;0.75;;
25569;SDS011;17955;45.542;9.238;2022-11-14T06:44:15;0.68;;;0.68;;
25569;SDS011;17955;45.542;9.238;2022-11-14T06:47:01;4.15;;;1.15;;
25569;SDS011;17955;45.542;9.238;2022-11-14T06:49:49;1.33;;;1.25;;
25569;SDS011;17955;45.542;9.238;2022-11-14T06:52:35;0.98;;;0.88;;
25569;SDS011;17955;45.542;9.238;2022-11-14T06:55:20;1.95;;;1.05;;
25569;SDS011;17955;45.542;9.238;2022-11-14T06:58:06;1.50;;;1.40;;
25569;SDS011;17955;45.542;9.238;2022-11-14T07:00:52;2.33;;;2.22;;
25569;SDS011;17955;45.542;9.238;2022-11-14T07:03:37;1.52;;;1.42;;
25569;SDS011;17955;45.542;9.238;2022-11-14T07:06:25;0.40;;;0.40;;
25569;SDS011;17955;45.542;9.238;2022-11-14T07:09:11;5.93;;;1.30;;
25569;SDS011;17955;45.542;9.238;2022-11-14T07:11:57;0.77;;;0.77;;
25569;SDS011;17955;45.542;9.238;2022-11-14T07:14:42;0.50;;;0.50;;
25569;SDS011;17955;45.542;9.238;2022-11-14T07:17:29;0.50;;;0.50;;
25569;SDS011;17955;45.542;9.238;2022-11-14T07:20:14;0.87;;;0.87;;
25569;SDS011;17955;45.542;9.238;2022-11-14T07:25:48;0.50;;;0.50;;
25569;SDS011;17955;45.542;9.238;2022-11-14T07:28:34;0.60;;;0.60;;
25569;SDS011;17955;45.542;9.238;2022-11-14T07:31:21;0.73;;;0.73;;
25569;SDS011;17955;45.542;9.238;2022-11-14T07:34:07;1.02;;;1.02;;
25569;SDS011;17955;45.542;9.238;2022-11-14T07:36:56;1.60;;;1.50;;
25569;SDS011;17955;45.542;9.238;2022-11-14T07:39:42;0.50;;;0.50;;
25569;SDS011;17955;45.542;9.238;2022-11-14T07:42:30;0.73;;;0.73;;
25569;SDS011;17955;45.542;9.238;2022-11-14T07:45:16;0.40;;;0.40;;
25569;SDS011;17955;45.542;9.238;2022-11-14T07:48:03;0.50;;;0.50;;
25569;SDS011;17955;45.542;9.238;2022-11-14T07:50:49;0.52;;;0.52;;
25569;SDS011;17955;45.542;9.238;2022-11-14T07:53:35;0.95;;;0.95;;
25569;SDS011;17955;45.542;9.238;2022-11-14T07:56:21;0.83;;;0.83;;
25569;SDS011;17955;45.542;9.238;2022-11-14T07:59:11;0.63;;;0.63;;
25569;SDS011;17955;45.542;9.238;2022-11-14T08:01:57;0.60;;;0.60;;
25569;SDS011;17955;45.542;9.238;2022-11-14T08:04:46;0.60;;;0.60;;
25569;SDS011;17955;45.542;9.238;2022-11-14T08:07:34;0.40;;;0.40;;
25569;SDS011;17955;45.542;9.238;2022-11-14T08:10:20;0.40;;;0.40;;
25569;SDS011;17955;45.542;9.238;2022-11-14T08:13:06;0.55;;;0.55;;
25569;SDS011;17955;45.542;9.238;2022-11-14T08:15:53;1.05;;;1.05;;
25569;SDS011;17955;45.542;9.238;2022-11-14T08:18:39;1.25;;;1.15;;
25569;SDS011;17955;45.542;9.238;2022-11-14T08:21:25;4.85;;;1.85;;
25569;SDS011;17955;45.542;9.238;2022-11-14T08:24:11;6.45;;;3.08;;
25569;SDS011;17955;45.542;9.238;2022-11-14T08:26:58;5.57;;;2.50;;
25569;SDS011;17955;45.542;9.238;2022-11-14T08:29:44;3.47;;;1.35;;
25569;SDS011;17955;45.542;9.238;2022-11-14T08:32:32;0.70;;;0.70;;
25569;SDS011;17955;45.542;9.238;2022-11-14T08:35:18;0.52;;;0.52;;
25569;SDS011;17955;45.542;9.238;2022-11-14T08:38:04;0.57;;;0.57;;
25569;SDS011;17955;45.542;9.238;2022-11-14T08:40:50;1.55;;;1.45;;
25569;SDS011;17955;45.542;9.238;2022-11-14T08:46:23;0.50;;;0.50;;
25569;SDS011;17955;45.542;9.238;2022-11-14T08:49:11;1.70;;;1.60;;
25569;SDS011;17955;45.542;9.238;2022-11-14T08:51:57;0.93;;;0.93;;
25569;SDS011;17955;45.542;9.238;2022-11-14T08:54:44;1.40;;;0.85;;
25569;SDS011;17955;45.542;9.238;2022-11-14T08:57:30;0.95;;;0.95;;
25569;SDS011;17955;45.542;9.238;2022-11-14T09:00:16;0.47;;;0.47;;
25569;SDS011;17955;45.542;9.238;2022-11-14T09:03:06;1.05;;;1.05;;
25569;SDS011;17955;45.542;9.238;2022-11-14T09:05:53;0.90;;;0.90;;
25569;SDS011;17955;45.542;9.238;2022-11-14T09:08:40;0.50;;;0.50;;
25569;SDS011;17955;45.542;9.238;2022-11-14T09:11:26;2.05;;;1.15;;
25569;SDS011;17955;45.542;9.238;2022-11-14T09:14:12;0.50;;;0.50;;
25569;SDS011;17955;45.542;9.238;2022-11-14T09:16:58;0.50;;;0.50;;
25569;SDS011;17955;45.542;9.238;2022-11-14T09:19:43;2.10;;;1.60;;
25569;SDS011;17955;45.542;9.238;2022-11-14T09:22:31;0.40;;;0.40;;
25569;SDS011;17955;45.542;9.238;2022-11-14T09:25:17;0.40;;;0.40;;
25569;SDS011;17955;45.542;9.238;2022-11-14T09:28:03;0.65;;;0.65;;
25569;SDS011;17955;45.542;9.238;2022-11-14T09:30:49;1.48;;;0.80;;
25569;SDS011;17955;45.542;9.238;2022-11-14T09:33:35;0.43;;;0.43;;
25569;SDS011;17955;45.542;9.238;2022-11-14T09:36:21;1.02;;;1.02;;
25569;SDS011;17955;45.542;9.238;2022-11-14T09:39:08;0.60;;;0.60;;
25569;SDS011;17955;45.542;9.238;2022-11-14T09:41:57;0.65;;;0.65;;
25569;SDS011;17955;45.542;9.238;2022-11-14T09:44:48;0.93;;;0.93;;
25569;SDS011;17955;45.542;9.238;2022-11-14T09:47:40;0.40;;;0.40;;
25569;SDS011;17955;45.542;9.238;2022-11-14T09:50:29;1.48;;;1.38;;
25569;SDS011;17955;45.542;9.238;2022-11-14T09:53:19;1.08;;;0.77;;
25569;SDS011;17955;45.542;9.238;2022-11-14T09:56:10;0.60;;;0.60;;
25569;SDS011;17955;45.542;9.238;2022-11-14T09:58:57;0.50;;;0.50;;
25569;SDS011;17955;45.542;9.238;2022-11-14T10:01:44;0.80;;;0.80;;
25569;SDS011;17955;45.542;9.238;2022-11-14T10:04:38;0.43;;;0.43;;
25569;SDS011;17955;45.542;9.238;2022-11-14T10:07:30;0.95;;;0.95;;
25569;SDS011;17955;45.542;9.238;2022-11-14T10:10:24;0.82;;;0.82;;
25569;SDS011;17955;45.542;9.238;2022-11-14T10:13:15;1.42;;;1.33;;
25569;SDS011;17955;45.542;9.238;2022-11-14T10:16:03;1.02;;;1.02;;
25569;SDS011;17955;45.542;9.238;2022-11-14T10:18:59;1.30;;;1.20;;
25569;SDS011;17955;45.542;9.238;2022-11-14T10:21:55;5.05;;;1.80;;
25569;SDS011;17955;45.542;9.238;2022-11-14T10:24:49;0.60;;;0.60;;
25569;SDS011;17955;45.542;9.238;2022-11-14T10:27:37;0.60;;;0.60;;
25569;SDS011;17955;45.542;9.238;2022-11-14T10:30:29;0.55;;;0.55;;
25569;SDS011;17955;45.542;9.238;2022-11-14T10:33:22;0.47;;;0.47;;
25569;SDS011;17955;45.542;9.238;2022-11-14T10:36:14;1.30;;;1.20;;
25569;SDS011;17955;45.542;9.238;2022-11-14T10:39:03;1.00;;;1.00;;
25569;SDS011;17955;45.542;9.238;2022-11-14T10:41:50;0.50;;;0.50;;
25569;SDS011;17955;45.542;9.238;2022-11-14T10:44:38;0.40;;;0.40;;
25569;SDS011;17955;45.542;9.238;2022-11-14T10:47:29;0.50;;;0.50;;
25569;SDS011;17955;45.542;9.238;2022-11-14T10:50:18;0.40;;;0.40;;
25569;SDS011;17955;45.542;9.238;2022-11-14T10:53:06;0.60;;;0.60;;
25569;SDS011;17955;45.542;9.238;2022-11-14T10:55:59;0.60;;;0.60;;
25569;SDS011;17955;45.542;9.238;2022-11-14T10:58:44;0.50;;;0.50;;
25569;SDS011;17955;45.542;9.238;2022-11-14T11:01:35;1.05;;;1.00;;
25569;SDS011;17955;45.542;9.238;2022-11-14T11:04:25;0.60;;;0.60;;
25569;SDS011;17955;45.542;9.238;2022-11-14T11:07:21;0.40;;;0.40;;
25569;SDS011;17955;45.542;9.238;2022-11-14T11:10:25;0.40;;;0.40;;
25569;SDS011;17955;45.542;9.238;2022-11-14T11:13:30;0.35;;;0.35;;
25569;SDS011;17955;45.542;9.238;2022-11-14T11:16:18;1.15;;;1.05;;
25569;SDS011;17955;45.542;9.238;2022-11-14T11:19:14;0.80;;;0.80;;
25569;SDS011;17955;45.542;9.238;2022-11-14T11:22:09;1.58;;;1.48;;
25569;SDS011;17955;45.542;9.238;2022-11-14T11:25:21;0.45;;;0.45;;
25569;SDS011;17955;45.542;9.238;2022-11-14T11:28:10;0.40;;;0.40;;
25569;SDS011;17955;45.542;9.238;2022-11-14T11:30:57;1.13;;;0.65;;
25569;SDS011;17955;45.542;9.238;2022-11-14T11:33:43;0.60;;;0.60;;
25569;SDS011;17955;45.542;9.238;2022-11-14T11:36:29;1.40;;;1.30;;
25569;SDS011;17955;45.542;9.238;2022-11-14T11:39:21;0.75;;;0.75;;
25569;SDS011;17955;45.542;9.238;2022-11-14T11:42:10;0.52;;;0.52;;
25569;SDS011;17955;45.542;9.238;2022-11-14T11:44:58;0.93;;;0.93;;
25569;SDS011;17955;45.542;9.238;2022-11-14T11:47:47;0.40;;;0.40;;
25569;SDS011;17955;45.542;9.238;2022-11-14T11:50:35;0.30;;;0.30;;
25569;SDS011;17955;45.542;9.238;2022-11-14T11:53:22;0.55;;;0.55;;
25569;SDS011;17955;45.542;9.238;2022-11-14T11:56:10;0.50;;;0.50;;
25569;SDS011;17955;45.542;9.238;2022-11-14T11:58:59;1.40;;;1.30;;
25569;SDS011;17955;45.542;9.238;2022-11-14T12:01:45;0.45;;;0.45;;
25569;SDS011;17955;45.542;9.238;2022-11-14T12:04:31;1.38;;;1.27;;
25569;SDS011;17955;45.542;9.238;2022-11-14T12:07:18;1.58;;;1.48;;
25569;SDS011;17955;45.542;9.238;2022-11-14T12:10:06;0.60;;;0.60;;
25569;SDS011;17955;45.542;9.238;2022-11-14T12:13:02;0.70;;;0.70;;
25569;SDS011;17955;45.542;9.238;2022-11-14T12:15:53;0.30;;;0.30;;
25569;SDS011;17955;45.542;9.238;2022-11-14T12:18:50;1.15;;;0.80;;
25569;SDS011;17955;45.542;9.238;2022-11-14T12:21:42;0.40;;;0.40;;
25569;SDS011;17955;45.542;9.238;2022-11-14T12:27:53;0.30;;;0.30;;
25569;SDS011;17955;45.542;9.238;2022-11-14T12:34:06;0.57;;;0.38;;
25569;SDS011;17955;45.542;9.238;2022-11-14T12:36:58;0.30;;;0.30;;
25569;SDS011;17955;45.542;9.238;2022-11-14T12:39:52;0.40;;;0.40;;
25569;SDS011;17955;45.542;9.238;2022-11-14T12:42:39;0.30;;;0.30;;
25569;SDS011;17955;45.542;9.238;2022-11-14T12:48:35;0.40;;;0.40;;
25569;SDS011;17955;45.542;9.238;2022-11-14T12:54:43;0.40;;;0.40;;
25569;SDS011;17955;45.542;9.238;2022-11-14T12:57:31;0.40;;;0.40;;
25569;SDS011;17955;45.542;9.238;2022-11-14T13:00:34;0.30;;;0.30;;
25569;SDS011;17955;45.542;9.238;2022-11-14T13:03:25;0.35;;;0.35;;
25569;SDS011;17955;45.542;9.238;2022-11-14T13:06:17;22.38;;;13.13;;
25569;SDS011;17955;45.542;9.238;2022-11-14T13:09:11;21.20;;;12.90;;
25569;SDS011;17955;45.542;9.238;2022-11-14T13:15:29;26.10;;;14.43;;
25569;SDS011;17955;45.542;9.238;2022-11-14T13:18:34;25.70;;;13.73;;
25569;SDS011;17955;45.542;9.238;2022-11-14T13:21:39;21.85;;;13.15;;
25569;SDS011;17955;45.542;9.238;2022-11-14T13:27:49;25.58;;;15.18;;
25569;SDS011;17955;45.542;9.238;2022-11-14T13:33:44;25.38;;;15.75;;
25569;SDS011;17955;45.542;9.238;2022-11-14T13:36:33;24.83;;;15.27;;
25569;SDS011;17955;45.542;9.238;2022-11-14T13:39:23;27.40;;;16.15;;
25569;SDS011;17955;45.542;9.238;2022-11-14T13:42:18;24.27;;;15.52;;
25569;SDS011;17955;45.542;9.238;2022-11-14T13:45:16;25.98;;;14.90;;
25569;SDS011;17955;45.542;9.238;2022-11-14T13:48:13;27.02;;;15.32;;
25569;SDS011;17955;45.542;9.238;2022-11-14T13:51:08;26.27;;;15.57;;
25569;SDS011;17955;45.542;9.238;2022-11-14T13:53:56;24.98;;;15.38;;
25569;SDS011;17955;45.542;9.238;2022-11-14T13:56:43;28.02;;;15.90;;
25569;SDS011;17955;45.542;9.238;2022-11-14T13:59:45;29.23;;;17.77;;
25569;SDS011;17955;45.542;9.238;2022-11-14T14:05:38;27.15;;;16.98;;
25569;SDS011;17955;45.542;9.238;2022-11-14T14:08:32;27.40;;;16.85;;
25569;SDS011;17955;45.542;9.238;2022-11-14T14:11:30;26.77;;;16.63;;
25569;SDS011;17955;45.542;9.238;2022-11-14T14:14:22;26.45;;;15.85;;
25569;SDS011;17955;45.542;9.238;2022-11-14T14:17:16;26.85;;;15.52;;
25569;SDS011;17955;45.542;9.238;2022-11-14T14:20:13;24.75;;;14.95;;
25569;SDS011;17955;45.542;9.238;2022-11-14T14:23:03;25.92;;;15.82;;
25569;SDS011;17955;45.542;9.238;2022-11-14T14:25:55;24.05;;;14.38;;
25569;SDS011;17955;45.542;9.238;2022-11-14T14:28:44;28.55;;;15.75;;
25569;SDS011;17955;45.542;9.238;2022-11-14T14:31:36;25.38;;;14.65;;
25569;SDS011;17955;45.542;9.238;2022-11-14T14:34:26;24.77;;;15.05;;
25569;SDS011;17955;45.542;9.238;2022-11-14T14:37:14;24.13;;;14.57;;
25569;SDS011;17955;45.542;9.238;2022-11-14T14:40:02;24.83;;;15.40;;
25569;SDS011;17955;45.542;9.238;2022-11-14T14:42:49;25.23;;;15.27;;
25569;SDS011;17955;45.542;9.238;2022-11-14T14:45:44;24.67;;;14.85;;
25569;SDS011;17955;45.542;9.238;2022-11-14T14:48:32;24.75;;;14.60;;
25569;SDS011;17955;45.542;9.238;2022-11-14T14:51:28;27.05;;;15.40;;
25569;SDS011;17955;45.542;9.238;2022-11-14T14:54:18;23.23;;;13.10;;
25569;SDS011;17955;45.542;9.238;2022-11-14T14:57:03;28.08;;;14.48;;
25569;SDS011;17955;45.542;9.238;2022-11-14T14:59:58;21.08;;;13.35;;
25569;SDS011;17955;45.542;9.238;2022-11-14T15:02:44;23.30;;;14.85;;
25569;SDS011;17955;45.542;9.238;2022-11-14T15:05:30;20.20;;;13.23;;
25569;SDS011;17955;45.542;9.238;2022-11-14T15:08:16;22.05;;;12.85;;
25569;SDS011;17955;45.542;9.238;2022-11-14T15:11:03;22.90;;;14.38;;
25569;SDS011;17955;45.542;9.238;2022-11-14T15:13:49;21.08;;;13.13;;
25569;SDS011;17955;45.542;9.238;2022-11-14T15:16:38;20.23;;;12.45;;
25569;SDS011;17955;45.542;9.238;2022-11-14T15:19:24;22.35;;;12.73;;
25569;SDS011;17955;45.542;9.238;2022-11-14T15:22:22;21.55;;;13.50;;
25569;SDS011;17955;45.542;9.238;2022-11-14T15:27:55;22.40;;;12.98;;
25569;SDS011;17955;45.542;9.238;2022-11-14T15:33:29;24.63;;;14.65;;
25569;SDS011;17955;45.542;9.238;2022-11-14T15:36:15;21.35;;;13.02;;
25569;SDS011;17955;45.542;9.238;2022-11-14T15:39:02;21.13;;;12.48;;
25569;SDS011;17955;45.542;9.238;2022-11-14T15:44:34;19.15;;;11.93;;
25569;SDS011;17955;45.542;9.238;2022-11-14T15:47:21;22.88;;;13.10;;
25569;SDS011;17955;45.542;9.238;2022-11-14T15:50:22;18.08;;;11.60;;
25569;SDS011;17955;45.542;9.238;2022-11-14T15:53:15;22.17;;;12.68;;
25569;SDS011;17955;45.542;9.238;2022-11-14T15:56:01;21.10;;;12.32;;
25569;SDS011;17955;45.542;9.238;2022-11-14T15:58:47;25.23;;;12.57;;
25569;SDS011;17955;45.542;9.238;2022-11-14T16:01:33;19.50;;;12.05;;
25569;SDS011;17955;45.542;9.238;2022-11-14T16:04:19;19.00;;;10.85;;
25569;SDS011;17955;45.542;9.238;2022-11-14T16:07:09;20.10;;;10.95;;
25569;SDS011;17955;45.542;9.238;2022-11-14T16:09:57;19.67;;;11.63;;
25569;SDS011;17955;45.542;9.238;2022-11-14T16:12:43;18.25;;;11.85;;
25569;SDS011;17955;45.542;9.238;2022-11-14T16:15:29;18.60;;;11.18;;
25569;SDS011;17955;45.542;9.238;2022-11-14T16:18:15;20.50;;;11.30;;
25569;SDS011;17955;45.542;9.238;2022-11-14T16:21:01;19.83;;;11.00;;
25569;SDS011;17955;45.542;9.238;2022-11-14T16:23:48;18.23;;;11.05;;
25569;SDS011;17955;45.542;9.238;2022-11-14T16:26:34;28.17;;;10.63;;
25569;SDS011;17955;45.542;9.238;2022-11-14T16:29:21;14.48;;;9.75;;
25569;SDS011;17955;45.542;9.238;2022-11-14T16:32:08;15.27;;;9.57;;
25569;SDS011;17955;45.542;9.238;2022-11-14T16:37:39;21.67;;;9.57;;
25569;SDS011;17955;45.542;9.238;2022-11-14T16:40:27;17.52;;;10.38;;
25569;SDS011;17955;45.542;9.238;2022-11-14T16:43:13;17.55;;;10.20;;
25569;SDS011;17955;45.542;9.238;2022-11-14T16:46:01;18.33;;;9.95;;
25569;SDS011;17955;45.542;9.238;2022-11-14T16:48:47;20.13;;;10.60;;
25569;SDS011;17955;45.542;9.238;2022-11-14T16:51:33;17.08;;;10.27;;
25569;SDS011;17955;45.542;9.238;2022-11-14T16:54:19;18.20;;;10.35;;
25569;SDS011;17955;45.542;9.238;2022-11-14T16:57:07;20.45;;;10.68;;
25569;SDS011;17955;45.542;9.238;2022-11-14T16:59:53;17.30;;;10.63;;
25569;SDS011;17955;45.542;9.238;2022-11-14T17:02:41;17.40;;;10.70;;
25569;SDS011;17955;45.542;9.238;2022-11-14T17:05:28;21.83;;;11.38;;
25569;SDS011;17955;45.542;9.238;2022-11-14T17:08:14;22.65;;;10.85;;
25569;SDS011;17955;45.542;9.238;2022-11-14T17:11:00;18.05;;;10.25;;
25569;SDS011;17955;45.542;9.238;2022-11-14T17:13:53;17.10;;;10.07;;
25569;SDS011;17955;45.542;9.238;2022-11-14T17:16:39;17.75;;;10.90;;
25569;SDS011;17955;45.542;9.238;2022-11-14T17:19:26;15.98;;;10.80;;
25569;SDS011;17955;45.542;9.238;2022-11-14T17:22:12;20.40;;;10.32;;
25569;SDS011;17955;45.542;9.238;2022-11-14T17:24:58;17.35;;;10.35;;
25569;SDS011;17955;45.542;9.238;2022-11-14T17:27:44;18.90;;;10.63;;
25569;SDS011;17955;45.542;9.238;2022-11-14T17:30:33;17.77;;;10.10;;
25569;SDS011;17955;45.542;9.238;2022-11-14T17:33:19;16.48;;;10.13;;
25569;SDS011;17955;45.542;9.238;2022-11-14T17:36:05;18.77;;;10.25;;
25569;SDS011;17955;45.542;9.238;2022-11-14T17:38:51;16.38;;;9.82;;
25569;SDS011;17955;45.542;9.238;2022-11-14T17:41:37;14.18;;;9.25;;
25569;SDS011;17955;45.542;9.238;2022-11-14T17:44:22;24.80;;;9.90;;
25569;SDS011;17955;45.542;9.238;2022-11-14T17:47:10;17.67;;;10.53;;
25569;SDS011;17955;45.542;9.238;2022-11-14T17:49:55;17.05;;;10.55;;
25569;SDS011;17955;45.542;9.238;2022-11-14T17:52:42;17.92;;;11.07;;
25569;SDS011;17955;45.542;9.238;2022-11-14T17:55:27;15.85;;;9.93;;
25569;SDS011;17955;45.542;9.238;2022-11-14T17:58:13;17.38;;;11.40;;
25569;SDS011;17955;45.542;9.238;2022-11-14T18:00:59;19.73;;;11.70;;
25569;SDS011;17955;45.542;9.238;2022-11-14T18:03:47;19.33;;;11.52;;
25569;SDS011;17955;45.542;9.238;2022-11-14T18:06:33;20.38;;;12.52;;
25569;SDS011;17955;45.542;9.238;2022-11-14T18:12:06;22.92;;;11.57;;
25569;SDS011;17955;45.542;9.238;2022-11-14T18:14:53;20.85;;;12.07;;
25569;SDS011;17955;45.542;9.238;2022-11-14T18:17:39;21.98;;;12.43;;
25569;SDS011;17955;45.542;9.238;2022-11-14T18:23:13;20.63;;;11.70;;
25569;SDS011;17955;45.542;9.238;2022-11-14T18:26:00;24.00;;;13.00;;
25569;SDS011;17955;45.542;9.238;2022-11-14T18:29:30;19.70;;;12.27;;
25569;SDS011;17955;45.542;9.238;2022-11-14T18:42:36;21.67;;;12.52;;
25569;SDS011;17955;45.542;9.238;2022-11-14T18:52:38;20.52;;;11.93;;
25569;SDS011;17955;45.542;9.238;2022-11-14T19:05:53;26.35;;;13.60;;
25569;SDS011;17955;45.542;9.238;2022-11-14T19:33:37;20.13;;;13.07;;
25569;SDS011;17955;45.542;9.238;2022-11-14T20:19:32;26.48;;;13.32;;
25569;SDS011;17955;45.542;9.238;2022-11-14T20:23:17;25.77;;;14.10;;
25569;SDS011;17955;45.542;9.238;2022-11-14T20:51:23;26.15;;;13.98;;
25569;SDS011;17955;45.542;9.238;2022-11-14T20:54:28;24.05;;;13.40;;
25569;SDS011;17955;45.542;9.238;2022-11-14T20:57:30;23.27;;;13.50;;
25569;SDS011;17955;45.542;9.238;2022-11-14T21:00:41;24.80;;;14.18;;
25569;SDS011;17955;45.542;9.238;2022-11-14T21:03:48;24.95;;;15.05;;
25569;SDS011;17955;45.542;9.238;2022-11-14T21:30:49;25.40;;;15.23;;
25569;SDS011;17955;45.542;9.238;2022-11-14T21:34:16;26.73;;;15.77;;
25569;SDS011;17955;45.542;9.238;2022-11-14T21:37:44;26.58;;;15.43;;
25569;SDS011;17955;45.542;9.238;2022-11-14T21:45:07;32.08;;;16.42;;
25569;SDS011;17955;45.542;9.238;2022-11-14T22:09:00;33.83;;;17.75;;
25569;SDS011;17955;45.542;9.238;2022-11-14T22:22:48;31.27;;;15.68;;
25569;SDS011;17955;45.542;9.238;2022-11-14T22:34:32;28.52;;;16.75;;